createdAt,value
2019-01-23T00:01:31.219Z,0.60
2019-01-23T00:04:12.888Z,0.50
2019-01-23T00:06:55.231Z,0.60
2019-01-23T00:09:37.142Z,0.60
2019-01-23T00:12:19.420Z,0.60
2019-01-23T00:15:03.268Z,0.50
2019-01-23T00:17:44.809Z,0.60
2019-01-23T00:20:28.050Z,0.60
2019-01-23T00:23:10.113Z,0.60
2019-01-23T00:25:51.818Z,0.60
2019-01-23T00:28:33.485Z,0.60
2019-01-23T00:31:16.736Z,0.60
2019-01-23T00:33:59.022Z,0.50
2019-01-23T00:36:41.190Z,0.50
2019-01-23T00:39:26.256Z,0.30
2019-01-23T00:42:08.273Z,0.20
2019-01-23T00:44:50.712Z,0.20
2019-01-23T00:47:32.910Z,0.00
2019-01-23T00:50:14.694Z,0.00
2019-01-23T00:52:56.902Z,0.00
2019-01-23T00:55:39.188Z,-0.10
2019-01-23T00:58:21.340Z,-0.20
2019-01-23T01:01:03.392Z,-0.40
2019-01-23T01:03:45.344Z,-0.50
2019-01-23T01:06:27.271Z,-0.70
2019-01-23T01:09:09.711Z,-0.80
2019-01-23T01:11:51.909Z,-0.90
2019-01-23T01:14:37.463Z,-1.00
2019-01-23T01:17:20.223Z,-1.00
2019-01-23T01:20:02.314Z,-1.10
2019-01-23T01:22:44.311Z,-1.20
2019-01-23T01:25:26.380Z,-1.20
2019-01-23T01:27:56.588Z,-1.30
2019-01-23T01:30:45.865Z,-1.40
2019-01-23T01:33:48.152Z,-1.50
2019-01-23T01:36:29.979Z,-1.50
2019-01-23T01:39:12.622Z,-1.50
2019-01-23T01:41:54.922Z,-1.50
2019-01-23T01:50:08.573Z,-1.20
2019-01-23T01:52:51.082Z,-1.20
2019-01-23T01:55:33.089Z,-1.10
2019-01-23T01:58:15.151Z,-1.10
2019-01-23T02:00:59.184Z,-1.20
2019-01-23T02:03:40.979Z,-1.20
2019-01-23T02:06:24.066Z,-1.30
2019-01-23T02:09:06.218Z,-1.30
2019-01-23T02:11:48.966Z,-1.30
2019-01-23T02:14:31.948Z,-1.30
2019-01-23T02:17:13.783Z,-1.30
2019-01-23T02:19:56.080Z,-1.20
2019-01-23T02:22:37.582Z,-1.10
2019-01-23T02:25:19.569Z,-1.10
2019-01-23T02:28:02.334Z,-1.00
2019-01-23T02:30:44.401Z,-1.00
2019-01-23T02:33:26.274Z,-0.90
2019-01-23T02:36:08.337Z,-0.80
2019-01-23T02:38:49.890Z,-0.70
2019-01-23T02:41:31.902Z,-0.60
2019-01-23T02:44:13.733Z,-0.50
2019-01-23T02:46:56.117Z,-0.40
2019-01-23T02:49:38.019Z,-0.40
2019-01-23T02:52:20.490Z,-0.30
2019-01-23T02:55:02.378Z,-0.20
2019-01-23T02:57:44.721Z,-0.20
2019-01-23T03:00:26.441Z,-0.10
2019-01-23T03:03:08.364Z,-0.10
2019-01-23T03:05:50.251Z,-0.10
2019-01-23T03:08:31.976Z,-0.10
2019-01-23T03:11:14.380Z,-0.10
2019-01-23T03:13:56.746Z,0.00
2019-01-23T03:16:38.679Z,-0.10
2019-01-23T03:19:20.747Z,0.00
2019-01-23T03:22:02.994Z,0.00
2019-01-23T03:24:45.267Z,0.00
2019-01-23T03:27:27.167Z,0.00
2019-01-23T03:30:09.130Z,0.00
2019-01-23T03:32:51.448Z,0.00
2019-01-23T03:35:35.526Z,0.00
2019-01-23T03:38:18.427Z,0.00
2019-01-23T03:41:00.585Z,-0.10
2019-01-23T03:43:42.565Z,0.00
2019-01-23T03:46:24.449Z,0.00
2019-01-23T03:49:06.297Z,0.00
2019-01-23T03:51:48.419Z,0.00
2019-01-23T03:54:18.666Z,0.00
2019-01-23T03:57:09.034Z,0.00
2019-01-23T03:59:51.003Z,0.00
2019-01-23T04:02:33.368Z,0.00
2019-01-23T04:05:15.681Z,0.00
2019-01-23T04:07:57.629Z,0.00
2019-01-23T04:10:39.562Z,-0.10
2019-01-23T04:13:21.663Z,-0.10
2019-01-23T04:16:04.288Z,-0.20
2019-01-23T04:18:46.147Z,-0.20
2019-01-23T04:21:28.082Z,-0.30
2019-01-23T04:24:10.137Z,-0.30
2019-01-23T04:26:52.360Z,-0.40
2019-01-23T04:29:39.514Z,-0.40
2019-01-23T04:32:16.988Z,-0.40
2019-01-23T04:34:58.862Z,-0.40
2019-01-23T04:37:42.932Z,-0.40
2019-01-23T04:40:25.305Z,-0.40
2019-01-23T04:43:07.192Z,-0.40
2019-01-23T04:45:49.445Z,-0.40
2019-01-23T04:48:31.420Z,-0.40
2019-01-23T04:54:56.194Z,-0.40
2019-01-23T04:57:38.126Z,-0.40
2019-01-23T05:00:23.542Z,-0.40
2019-01-23T05:03:05.366Z,-0.50
2019-01-23T05:05:47.197Z,-0.40
2019-01-23T05:08:29.083Z,-0.50
2019-01-23T05:11:11.300Z,-0.40
2019-01-23T05:13:53.102Z,-0.40
2019-01-23T05:16:35.344Z,-0.40
2019-01-23T05:19:17.589Z,-0.40
2019-01-23T05:21:59.213Z,-0.30
2019-01-23T05:24:41.176Z,-0.40
2019-01-23T05:27:24.627Z,-0.40
2019-01-23T05:30:05.990Z,-0.30
2019-01-23T05:32:47.564Z,-0.40
2019-01-23T05:35:30.501Z,-0.40
2019-01-23T05:38:12.132Z,-0.40
2019-01-23T05:40:54.192Z,-0.40
2019-01-23T05:43:36.179Z,-0.40
2019-01-23T05:46:17.722Z,-0.40
2019-01-23T05:48:59.796Z,-0.40
2019-01-23T05:51:42.299Z,-0.40
2019-01-23T05:54:24.116Z,-0.50
2019-01-23T05:57:06.030Z,-0.50
2019-01-23T05:59:48.215Z,-0.50
2019-01-23T06:02:30.111Z,-0.50
2019-01-23T06:05:11.985Z,-0.50
2019-01-23T06:07:54.668Z,-0.40
2019-01-23T06:10:37.554Z,-0.30
2019-01-23T06:13:07.675Z,-0.30
2019-01-23T06:15:56.800Z,-0.30
2019-01-23T06:18:39.159Z,-0.30
2019-01-23T06:21:09.361Z,-0.30
2019-01-23T06:23:58.604Z,-0.30
2019-01-23T06:29:21.441Z,-0.40
2019-01-23T06:32:03.210Z,-0.50
2019-01-23T06:34:44.647Z,-0.50
2019-01-23T06:37:26.585Z,-0.50
2019-01-23T06:40:08.243Z,-0.50
2019-01-23T06:42:49.636Z,-0.50
2019-01-23T06:45:31.331Z,-0.50
2019-01-23T06:48:13.740Z,-0.50
2019-01-23T06:50:55.901Z,-0.50
2019-01-23T06:53:37.631Z,-0.50
2019-01-23T06:56:19.941Z,-0.50
2019-01-23T06:59:02.208Z,-0.50
2019-01-23T07:01:43.703Z,-0.60
2019-01-23T07:04:25.760Z,-0.60
2019-01-23T07:07:07.500Z,-0.70
2019-01-23T07:09:49.444Z,-0.80
2019-01-23T07:12:31.556Z,-0.80
2019-01-23T07:15:13.242Z,-0.90
2019-01-23T07:17:56.151Z,-1.00
2019-01-23T07:20:37.776Z,-1.10
2019-01-23T07:23:20.065Z,-1.10
2019-01-23T07:26:01.884Z,-1.20
2019-01-23T07:28:49.128Z,-1.20
2019-01-23T07:31:27.803Z,-1.30
2019-01-23T07:34:09.554Z,-1.30
2019-01-23T07:36:52.756Z,-1.30
2019-01-23T07:39:34.592Z,-1.30
2019-01-23T07:42:16.361Z,-1.30
2019-01-23T07:44:58.211Z,-1.30
2019-01-23T07:47:40.505Z,-1.30
2019-01-23T07:50:23.403Z,-1.30
2019-01-23T07:53:05.124Z,-1.20
2019-01-23T07:55:47.093Z,-1.30
2019-01-23T07:58:29.333Z,-1.30
2019-01-23T08:01:10.958Z,-1.20
2019-01-23T08:03:52.302Z,-1.20
2019-01-23T08:06:34.471Z,-1.20
2019-01-23T08:09:16.843Z,-1.20
2019-01-23T08:11:58.701Z,-1.10
2019-01-23T08:14:41.964Z,-1.00
2019-01-23T08:17:24.694Z,-1.00
2019-01-23T08:20:06.623Z,-1.00
2019-01-23T08:22:49.790Z,-0.90
2019-01-23T08:25:31.417Z,-0.90
2019-01-23T08:28:13.273Z,-0.80
2019-01-23T08:30:55.253Z,-0.80
2019-01-23T08:33:37.130Z,-0.70
2019-01-23T08:36:19.292Z,-0.70
2019-01-23T08:39:01.300Z,-0.60
2019-01-23T08:41:43.695Z,-0.50
2019-01-23T08:44:25.702Z,-0.40
2019-01-23T08:47:07.593Z,-0.40
2019-01-23T08:49:49.084Z,-0.40
2019-01-23T08:52:31.097Z,-0.40
2019-01-23T08:55:13.277Z,-0.40
2019-01-23T08:57:55.588Z,-0.50
2019-01-23T09:00:37.810Z,-0.50
2019-01-23T09:03:19.611Z,-0.60
2019-01-23T09:06:01.297Z,-0.60
2019-01-23T09:08:43.146Z,-0.60
2019-01-23T09:11:25.377Z,-0.60
2019-01-23T09:14:07.516Z,-0.60
2019-01-23T09:16:49.396Z,-0.60
2019-01-23T09:19:31.427Z,-0.70
2019-01-23T09:22:14.003Z,-0.60
2019-01-23T09:24:55.566Z,-0.60
2019-01-23T09:27:37.809Z,-0.60
2019-01-23T09:30:20.071Z,-0.50
2019-01-23T09:33:02.620Z,-0.50
2019-01-23T09:35:44.002Z,-0.40
2019-01-23T09:38:26.115Z,-0.30
2019-01-23T09:41:08.683Z,-0.30
2019-01-23T09:43:51.273Z,-0.20
2019-01-23T09:46:33.561Z,-0.10
2019-01-23T09:49:15.151Z,0.00
2019-01-23T09:51:56.538Z,0.10
2019-01-23T09:54:38.512Z,0.20
2019-01-23T09:57:20.717Z,0.30
2019-01-23T10:00:02.351Z,0.40
2019-01-23T10:02:44.312Z,0.50
2019-01-23T10:05:26.020Z,0.60
2019-01-23T10:08:07.808Z,0.70
2019-01-23T10:10:49.614Z,0.70
2019-01-23T10:13:31.121Z,0.70
2019-01-23T10:16:15.153Z,0.80
2019-01-23T10:18:56.721Z,0.90
2019-01-23T10:21:38.285Z,1.00
2019-01-23T10:24:20.597Z,1.00
2019-01-23T10:27:02.867Z,1.10
2019-01-23T10:29:44.681Z,1.20
2019-01-23T10:32:26.787Z,1.30
2019-01-23T10:35:08.778Z,1.40
2019-01-23T10:37:50.533Z,1.50
2019-01-23T10:40:32.959Z,1.50
2019-01-23T10:43:15.078Z,1.60
2019-01-23T10:45:57.399Z,1.60
2019-01-23T10:51:20.454Z,1.80
2019-01-23T10:54:01.968Z,1.80
2019-01-23T10:56:44.222Z,1.90
2019-01-23T10:59:26.137Z,1.90
2019-01-23T11:02:08.579Z,1.90
2019-01-23T11:04:49.992Z,1.90
2019-01-23T11:07:32.634Z,2.00
2019-01-23T11:10:14.724Z,2.10
2019-01-23T11:12:56.784Z,2.00
2019-01-23T11:15:39.136Z,2.00
2019-01-23T11:18:20.638Z,2.10
2019-01-23T11:21:02.293Z,2.20
2019-01-23T11:23:44.310Z,2.30
2019-01-23T11:26:26.365Z,2.30
2019-01-23T11:29:08.199Z,2.50
2019-01-23T11:31:50.094Z,2.60
2019-01-23T11:34:32.109Z,2.80
2019-01-23T11:37:14.109Z,2.90
2019-01-23T11:39:57.830Z,2.90
2019-01-23T11:42:39.798Z,2.90
2019-01-23T11:45:21.606Z,3.00
2019-01-23T11:48:03.818Z,3.10
2019-01-23T11:50:45.559Z,3.10
2019-01-23T11:53:27.668Z,3.10
2019-01-23T11:56:09.458Z,3.10
2019-01-23T11:58:50.918Z,3.30
2019-01-23T12:01:32.823Z,3.40
2019-01-23T12:04:15.536Z,3.40
2019-01-23T12:06:45.680Z,3.40
2019-01-23T12:12:35.813Z,3.40
2019-01-23T12:15:17.906Z,3.40
2019-01-23T12:17:59.804Z,3.40
2019-01-23T12:20:41.674Z,3.40
2019-01-23T12:23:23.530Z,3.50
2019-01-23T12:26:12.559Z,3.60
2019-01-23T12:29:01.852Z,3.70
2019-01-23T12:31:43.627Z,3.70
2019-01-23T12:34:25.840Z,3.60
2019-01-23T12:37:07.456Z,3.50
2019-01-23T12:39:49.480Z,3.60
2019-01-23T12:42:31.321Z,3.50
2019-01-23T12:45:13.279Z,3.30
2019-01-23T12:47:55.062Z,3.40
2019-01-23T12:50:36.956Z,3.30
2019-01-23T12:53:19.833Z,3.20
2019-01-23T12:55:50.055Z,3.20
2019-01-23T12:58:33.159Z,3.00
2019-01-23T13:01:15.748Z,2.90
2019-01-23T13:03:57.468Z,2.80
2019-01-23T13:06:39.191Z,2.70
2019-01-23T13:09:21.076Z,2.70
2019-01-23T13:12:03.294Z,2.70
2019-01-23T13:17:41.644Z,2.80
2019-01-23T13:20:24.658Z,2.80
2019-01-23T13:23:07.826Z,2.70
2019-01-23T13:25:39.071Z,2.70
2019-01-23T13:28:28.193Z,2.70
2019-01-23T13:30:58.308Z,2.70
2019-01-23T13:33:28.394Z,2.60
2019-01-23T13:36:10.644Z,2.70
2019-01-23T13:38:52.618Z,2.70
2019-01-23T13:41:22.871Z,2.60
2019-01-23T13:44:12.325Z,2.50
2019-01-23T13:47:14.302Z,2.40
2019-01-23T13:49:55.984Z,2.30
2019-01-23T13:52:37.602Z,2.30
2019-01-23T13:55:19.313Z,2.40
2019-01-23T13:58:01.159Z,2.30
2019-01-23T14:00:42.735Z,2.20
2019-01-23T14:03:26.509Z,2.20
2019-01-23T14:06:08.351Z,2.10
2019-01-23T14:08:50.180Z,2.10
2019-01-23T14:11:33.014Z,2.10
2019-01-23T14:14:15.158Z,2.10
2019-01-23T14:16:59.379Z,2.00
2019-01-23T14:19:41.889Z,2.10
2019-01-23T14:22:23.374Z,2.00
2019-01-23T14:25:05.537Z,2.10
2019-01-23T14:27:47.854Z,2.00
2019-01-23T14:30:29.869Z,2.00
2019-01-23T14:33:11.672Z,2.00
2019-01-23T14:35:54.736Z,2.00
2019-01-23T14:38:36.467Z,1.90
2019-01-23T14:41:18.222Z,1.80
2019-01-23T14:44:01.301Z,1.80
2019-01-23T14:46:42.933Z,1.70
2019-01-23T14:49:26.213Z,1.80
2019-01-23T14:52:07.780Z,1.70
2019-01-23T14:54:49.936Z,1.70
2019-01-23T14:57:31.753Z,1.80
2019-01-23T15:00:13.860Z,1.80
2019-01-23T15:02:56.803Z,1.80
2019-01-23T15:05:38.366Z,1.80
2019-01-23T15:08:19.955Z,1.70
2019-01-23T15:11:02.095Z,1.70
2019-01-23T15:13:45.260Z,1.60
2019-01-23T15:16:27.163Z,1.50
2019-01-23T15:19:09.094Z,1.50
2019-01-23T15:21:51.931Z,1.50
2019-01-23T15:24:33.908Z,1.50
2019-01-23T15:27:19.285Z,1.40
2019-01-23T15:30:01.309Z,1.40
2019-01-23T15:32:43.163Z,1.40
2019-01-23T15:35:25.093Z,1.40
2019-01-23T15:38:07.213Z,1.30
2019-01-23T15:40:48.822Z,1.20
2019-01-23T15:43:31.025Z,1.20
2019-01-23T15:46:15.273Z,1.20
2019-01-23T15:48:56.897Z,1.20
2019-01-23T15:51:38.816Z,1.20
2019-01-23T15:54:08.861Z,1.10
2019-01-23T15:56:58.047Z,1.00
2019-01-23T15:59:39.910Z,1.00
2019-01-23T16:02:24.471Z,1.00
2019-01-23T16:05:04.891Z,1.00
2019-01-23T16:07:47.085Z,1.10
2019-01-23T16:10:22.742Z,1.00
2019-01-23T16:13:11.934Z,1.10
2019-01-23T16:15:53.720Z,1.00
2019-01-23T16:18:36.044Z,1.00
2019-01-23T16:21:17.677Z,1.00
2019-01-23T16:23:59.984Z,1.00
2019-01-23T16:26:42.238Z,1.00
2019-01-23T16:29:24.140Z,1.00
2019-01-23T16:32:05.989Z,0.90
2019-01-23T16:34:49.166Z,0.80
2019-01-23T16:37:31.201Z,0.80
2019-01-23T16:40:13.361Z,0.80
2019-01-23T16:42:55.783Z,0.80
2019-01-23T16:45:38.084Z,0.80
2019-01-23T16:48:20.078Z,0.80
2019-01-23T16:51:02.648Z,0.80
2019-01-23T16:53:44.252Z,0.80
2019-01-23T16:56:26.219Z,0.80
2019-01-23T16:59:08.133Z,0.80
2019-01-23T17:01:49.865Z,0.80
2019-01-23T17:04:32.078Z,0.80
2019-01-23T17:07:13.801Z,0.70
2019-01-23T17:09:56.120Z,0.70
2019-01-23T17:12:37.646Z,0.70
2019-01-23T17:15:20.034Z,0.70
2019-01-23T17:18:01.953Z,0.60
2019-01-23T17:20:44.699Z,0.60
2019-01-23T17:23:26.709Z,0.60
2019-01-23T17:26:08.969Z,0.50
2019-01-23T17:28:51.024Z,0.50
2019-01-23T17:31:33.390Z,0.30
2019-01-23T17:34:15.459Z,0.20
2019-01-23T17:36:57.228Z,0.10
2019-01-23T17:39:39.196Z,0.00
2019-01-23T17:42:21.443Z,0.00
2019-01-23T17:45:03.365Z,0.00
2019-01-23T17:47:45.732Z,-0.10
2019-01-23T17:50:27.617Z,0.00
2019-01-23T17:53:10.049Z,-0.10
2019-01-23T17:55:51.977Z,0.00
2019-01-23T17:58:34.167Z,0.00
2019-01-23T18:01:15.914Z,0.00
2019-01-23T18:03:58.281Z,-0.10
2019-01-23T18:06:40.465Z,-0.10
2019-01-23T18:09:22.927Z,-0.10
2019-01-23T18:12:05.161Z,-0.20
2019-01-23T18:14:49.182Z,-0.20
2019-01-23T18:17:31.720Z,-0.30
2019-01-23T18:20:14.075Z,-0.40
2019-01-23T18:22:56.250Z,-0.50
2019-01-23T18:25:39.163Z,-0.50
2019-01-23T18:28:20.979Z,-0.50
2019-01-23T18:31:03.076Z,-0.50
2019-01-23T18:33:44.913Z,-0.50
2019-01-23T18:36:26.992Z,-0.60
2019-01-23T18:39:09.114Z,-0.50
2019-01-23T18:41:50.921Z,-0.50
2019-01-23T18:44:32.885Z,-0.50
2019-01-23T18:47:14.841Z,-0.40
2019-01-23T18:49:56.769Z,-0.40
2019-01-23T18:52:38.469Z,-0.30
2019-01-23T18:55:20.437Z,-0.20
2019-01-23T18:58:02.909Z,-0.20
2019-01-23T19:00:44.641Z,-0.20
2019-01-23T19:03:26.097Z,-0.10
2019-01-23T19:05:56.277Z,-0.10
2019-01-23T19:08:47.460Z,-0.20
2019-01-23T19:11:29.226Z,-0.20
2019-01-23T19:13:59.403Z,-0.20
2019-01-23T19:17:00.790Z,-0.20
2019-01-23T19:19:51.856Z,-0.30
2019-01-23T19:22:34.014Z,-0.30
2019-01-23T19:25:16.077Z,-0.30
2019-01-23T19:27:58.106Z,-0.30
2019-01-23T19:30:39.969Z,-0.30
2019-01-23T19:33:21.747Z,-0.20
2019-01-23T19:36:04.029Z,-0.20
2019-01-23T19:38:46.086Z,-0.10
2019-01-23T19:41:28.237Z,-0.20
2019-01-23T19:44:10.206Z,-0.20
2019-01-23T19:46:51.982Z,-0.20
2019-01-23T19:49:34.880Z,-0.10
2019-01-23T19:52:16.798Z,-0.20
2019-01-23T19:54:58.864Z,-0.20
2019-01-23T19:57:41.215Z,-0.20
2019-01-23T20:00:23.163Z,-0.20
2019-01-23T20:03:05.534Z,-0.20
2019-01-23T20:05:47.587Z,-0.20
2019-01-23T20:08:30.493Z,-0.20
2019-01-23T20:11:12.320Z,-0.20
2019-01-23T20:13:56.625Z,-0.10
2019-01-23T20:16:38.518Z,-0.10
2019-01-23T20:19:20.742Z,-0.10
2019-01-23T20:22:02.923Z,-0.10
2019-01-23T20:24:45.081Z,-0.10
2019-01-23T20:27:26.940Z,-0.10
2019-01-23T20:30:08.737Z,0.00
2019-01-23T20:32:50.767Z,0.00
2019-01-23T20:35:32.949Z,0.00
2019-01-23T20:38:15.884Z,0.00
2019-01-23T20:40:58.124Z,-0.10
2019-01-23T20:43:39.838Z,0.00
2019-01-23T20:46:21.582Z,0.00
2019-01-23T20:49:04.903Z,0.00
2019-01-23T20:51:46.925Z,0.10
2019-01-23T20:54:29.122Z,0.00
2019-01-23T20:57:11.077Z,0.00
2019-01-23T20:59:54.124Z,0.00
2019-01-23T21:02:36.029Z,0.10
2019-01-23T21:05:18.089Z,0.10
2019-01-23T21:08:00.106Z,0.10
2019-01-23T21:10:42.246Z,0.00
2019-01-23T21:13:24.513Z,0.00
2019-01-23T21:16:07.430Z,0.00
2019-01-23T21:18:49.686Z,0.00
2019-01-23T21:21:31.126Z,0.00
2019-01-23T21:24:13.181Z,0.10
2019-01-23T21:26:43.477Z,0.10
2019-01-23T21:32:39.120Z,0.00
2019-01-23T21:35:20.903Z,0.10
2019-01-23T21:38:03.517Z,0.10
2019-01-23T21:40:45.198Z,0.10
2019-01-23T21:43:27.027Z,0.10
2019-01-23T21:46:08.810Z,0.20
2019-01-23T21:48:51.773Z,0.20
2019-01-23T21:51:33.514Z,0.20
2019-01-23T21:54:15.721Z,0.10
2019-01-23T21:56:57.891Z,0.10
2019-01-23T21:59:39.885Z,0.20
2019-01-23T22:02:22.199Z,0.20
2019-01-23T22:05:03.704Z,0.10
2019-01-23T22:07:45.980Z,0.10
2019-01-23T22:10:27.946Z,0.10
2019-01-23T22:13:09.698Z,0.10
2019-01-23T22:15:51.548Z,0.20
2019-01-23T22:18:33.905Z,0.20
2019-01-23T22:21:15.462Z,0.20
2019-01-23T22:23:57.454Z,0.20
2019-01-23T22:26:41.335Z,0.30
2019-01-23T22:29:23.280Z,0.20
2019-01-23T22:32:05.240Z,0.30
2019-01-23T22:34:48.654Z,0.20
2019-01-23T22:37:30.576Z,0.20
2019-01-23T22:40:12.348Z,0.20
2019-01-23T22:42:54.280Z,0.20
2019-01-23T22:45:36.470Z,0.20
2019-01-23T22:48:18.311Z,0.20
2019-01-23T22:51:00.427Z,0.20
2019-01-23T22:53:42.378Z,0.20
2019-01-23T22:56:24.271Z,0.20
2019-01-23T22:59:05.931Z,0.20
2019-01-23T23:01:47.929Z,0.20
2019-01-23T23:04:29.447Z,0.20
2019-01-23T23:07:10.947Z,0.20
2019-01-23T23:09:53.086Z,0.20
2019-01-23T23:12:35.108Z,0.30
2019-01-23T23:15:17.470Z,0.20
2019-01-23T23:17:59.437Z,0.30
2019-01-23T23:20:41.457Z,0.20
2019-01-23T23:23:23.735Z,0.30
2019-01-23T23:26:05.618Z,0.20
2019-01-23T23:28:48.843Z,0.20
2019-01-23T23:31:31.628Z,0.30
2019-01-23T23:34:13.689Z,0.20
2019-01-23T23:36:55.544Z,0.30
2019-01-23T23:39:38.399Z,0.30
2019-01-23T23:42:20.261Z,0.30
2019-01-23T23:45:02.646Z,0.30
2019-01-23T23:47:44.723Z,0.40
2019-01-23T23:50:27.616Z,0.40
2019-01-23T23:53:09.035Z,0.40
2019-01-23T23:55:50.955Z,0.30
2019-01-23T23:58:32.983Z,0.30
